Fort Lauderdale Hollywood International Airport
KFLL : now visible

Airfield :











YOU CAN JOIN US ON...

 
LOGIN :

Register | Disclaimer

   EN    FR    IT 

 









Legend :    VFR   Marginal VFR   IFR   Intensive IFR   Very Intensive IFR
Visi :
Ceiling :
>= 8 km
>= 3000ft
5 to 8 km
1000 to 3000 ft
1500m to 5 km
500 to 1000 ft
800 to 1500m
200 to 500 ft
< 800m
< 200 ft
Symbols :   Thunderstorms  Fog  Heavy snow  Heavy precipitations  Wind > 20 kt






- Airport Elevation : 9 ft
- IATA code : FLL


KFLL - Fort Lauderdale Hollywood International

CURRENT METAR :
  • 162153Z 21006KT 10SM FEW030 FEW060 SCT100 BKN170 27/24 A2993 RMK AO2 RAE27 TSE04 SLP134 P0000 T02720239 $

EXPIRED METARs :
  • 162105Z 26007KT 10SM -RA FEW040 SCT075 BKN100 BKN250 26/24 A2993 RMK AO2 LTG DSNT NE TSE04 CB DSNT NE MOV NE P0000 T02560239 $
  • 162021Z 29007G17KT 5SM R10L/2400V5000FT -TSRA FEW014 SCT035CB BKN048 BKN130 BKN250 25/23 A2995 RMK AO2 PK WND 25032/2000 WSHFT 1948 LTG DSNT ALQDS RAB00 OCNL LTGICCG NW-NE TS NW-NE MOV NE P0000 T02500228 $
  • 162013Z 29013G29KT 1 1/2SM R10L/2000V2800FT +TSRA BR FEW012 BKN035CB BKN100 25/23 A2993 RMK AO2 PK WND 25032/2000 WSHFT 1948 LTG DSNT SW-N RAB00 VIS SE-S 7 FRQ LTGICCG OHD-NE TS OHD-NE MOV NE P0000 T02500233 $
  • 162007Z 25023G32KT 1/4SM R10L/2200VP6000FT +TSRA FG FEW012 BKN035CB BKN100 26/24 A2994 RMK AO2 PK WND 25032/2000 WSHFT 1948 LTG DSNT SW-N RAB00 PRESRR FRQ LTGICCG SW-OHD-NE TS SW-OHD-NE MOV NE P0000 T02610239 $
  • 161953Z 19013G18KT 10SM TS FEW035 SCT040CB BKN100 BKN250 32/24 A2990 RMK AO2 LTG DSNT N AND SW TSB53 SLP123 OCNL LTGICCG SW-NW-N TS SW-NW-N MOV NE T03220239

TAF KFLL
Valid from the 16 at 21:00 until the 18 at 00:00 UTC


162050Z 1621/1724 17010KT P6SM VCTS SCT030CB BKN050
FM162300 22007KT P6SM VCSH SCT030 SCT200
FM170200 VRB03KT P6SM FEW030 SCT200
FM171500 24006KT P6SM SCT030 BKN050
FM171800 22010KT P6SM VCTS SCT030CB BKN050
KZMA FIR / North America



MET'MAP, your aeronautical weather chart ! - Copyright ORBIFLY December 2007 - Disclaimer

ORBIFLY MET'MAP TEAM :

Programming & Development : Alexandra Zaïnal
Original concept : Baudouin d'Aumeries
Technical & hardware support : Manuel Goepfert
Assistance : Marc-Olivier Méhu




SOURCES & CREDITS :

   NOAA       Earth
Advisory